sensor_id;sensor_type;location;lat;lon;timestamp;temperature;humidity
3348;DHT22;1687;49.540;8.574;2023-03-23T00:01:25;16.00;57.10
3348;DHT22;1687;49.540;8.574;2023-03-23T00:03:53;16.00;57.20
3348;DHT22;1687;49.540;8.574;2023-03-23T00:06:23;16.00;57.30
3348;DHT22;1687;49.540;8.574;2023-03-23T00:08:52;16.00;57.20
3348;DHT22;1687;49.540;8.574;2023-03-23T00:11:23;16.00;57.40
3348;DHT22;1687;49.540;8.574;2023-03-23T00:13:52;16.00;57.40
3348;DHT22;1687;49.540;8.574;2023-03-23T00:16:20;16.00;57.50
3348;DHT22;1687;49.540;8.574;2023-03-23T00:18:55;16.00;57.40
3348;DHT22;1687;49.540;8.574;2023-03-23T00:21:31;15.90;57.50
3348;DHT22;1687;49.540;8.574;2023-03-23T00:24:10;16.00;57.50
3348;DHT22;1687;49.540;8.574;2023-03-23T00:26:37;15.90;57.60
3348;DHT22;1687;49.540;8.574;2023-03-23T00:29:13;16.00;57.80
3348;DHT22;1687;49.540;8.574;2023-03-23T00:31:41;16.00;57.70
3348;DHT22;1687;49.540;8.574;2023-03-23T00:34:17;16.00;57.70
3348;DHT22;1687;49.540;8.574;2023-03-23T00:36:49;16.00;57.70
3348;DHT22;1687;49.540;8.574;2023-03-23T00:39:19;16.00;57.70
3348;DHT22;1687;49.540;8.574;2023-03-23T00:41:45;15.90;57.80
3348;DHT22;1687;49.540;8.574;2023-03-23T00:44:13;15.90;57.70
3348;DHT22;1687;49.540;8.574;2023-03-23T00:46:45;15.80;57.80
3348;DHT22;1687;49.540;8.574;2023-03-23T00:49:15;15.80;57.80
3348;DHT22;1687;49.540;8.574;2023-03-23T00:51:42;15.80;58.00
3348;DHT22;1687;49.540;8.574;2023-03-23T00:54:08;15.80;58.00
3348;DHT22;1687;49.540;8.574;2023-03-23T00:56:36;15.70;57.90
3348;DHT22;1687;49.540;8.574;2023-03-23T00:59:02;15.70;57.90
3348;DHT22;1687;49.540;8.574;2023-03-23T01:01:28;15.70;58.10
3348;DHT22;1687;49.540;8.574;2023-03-23T01:03:54;15.70;58.00
3348;DHT22;1687;49.540;8.574;2023-03-23T01:06:27;15.70;58.10
3348;DHT22;1687;49.540;8.574;2023-03-23T01:08:53;15.70;58.10
3348;DHT22;1687;49.540;8.574;2023-03-23T01:11:19;15.80;58.30
3348;DHT22;1687;49.540;8.574;2023-03-23T01:13:46;15.70;58.10
3348;DHT22;1687;49.540;8.574;2023-03-23T01:16:12;15.70;58.20
3348;DHT22;1687;49.540;8.574;2023-03-23T01:18:38;15.70;58.30
3348;DHT22;1687;49.540;8.574;2023-03-23T01:21:10;15.70;58.30
3348;DHT22;1687;49.540;8.574;2023-03-23T01:23:38;15.70;58.30
3348;DHT22;1687;49.540;8.574;2023-03-23T01:26:06;15.70;58.40
3348;DHT22;1687;49.540;8.574;2023-03-23T01:28:34;15.70;58.40
3348;DHT22;1687;49.540;8.574;2023-03-23T01:31:05;15.70;58.40
3348;DHT22;1687;49.540;8.574;2023-03-23T01:33:33;15.80;58.40
3348;DHT22;1687;49.540;8.574;2023-03-23T01:36:07;15.80;58.40
3348;DHT22;1687;49.540;8.574;2023-03-23T01:38:35;15.80;58.40
3348;DHT22;1687;49.540;8.574;2023-03-23T01:41:02;15.80;58.40
3348;DHT22;1687;49.540;8.574;2023-03-23T01:43:28;15.80;58.40
3348;DHT22;1687;49.540;8.574;2023-03-23T01:45:54;15.70;58.40
3348;DHT22;1687;49.540;8.574;2023-03-23T01:48:24;15.70;58.30
3348;DHT22;1687;49.540;8.574;2023-03-23T01:51:12;15.70;58.40
3348;DHT22;1687;49.540;8.574;2023-03-23T01:53:50;15.80;58.40
3348;DHT22;1687;49.540;8.574;2023-03-23T01:56:24;15.70;58.40
3348;DHT22;1687;49.540;8.574;2023-03-23T01:58:53;15.70;58.30
3348;DHT22;1687;49.540;8.574;2023-03-23T02:01:21;15.70;58.40
3348;DHT22;1687;49.540;8.574;2023-03-23T02:03:47;15.80;58.50
3348;DHT22;1687;49.540;8.574;2023-03-23T02:06:16;15.70;58.50
3348;DHT22;1687;49.540;8.574;2023-03-23T02:08:43;15.70;58.50
3348;DHT22;1687;49.540;8.574;2023-03-23T02:11:20;15.70;58.40
3348;DHT22;1687;49.540;8.574;2023-03-23T02:13:47;15.60;58.40
3348;DHT22;1687;49.540;8.574;2023-03-23T02:19:39;15.60;58.30
3348;DHT22;1687;49.540;8.574;2023-03-23T02:25:07;15.50;58.50
3348;DHT22;1687;49.540;8.574;2023-03-23T02:34:56;15.60;58.60
3348;DHT22;1687;49.540;8.574;2023-03-23T02:37:46;15.60;58.70
3348;DHT22;1687;49.540;8.574;2023-03-23T02:40:21;15.60;58.60
3348;DHT22;1687;49.540;8.574;2023-03-23T02:42:52;15.60;58.80
3348;DHT22;1687;49.540;8.574;2023-03-23T02:45:21;15.60;58.70
3348;DHT22;1687;49.540;8.574;2023-03-23T02:47:49;15.70;58.90
3348;DHT22;1687;49.540;8.574;2023-03-23T02:50:17;15.60;58.60
3348;DHT22;1687;49.540;8.574;2023-03-23T02:52:46;15.60;58.70
3348;DHT22;1687;49.540;8.574;2023-03-23T02:55:14;15.60;58.70
3348;DHT22;1687;49.540;8.574;2023-03-23T02:57:41;15.60;58.70
3348;DHT22;1687;49.540;8.574;2023-03-23T03:00:13;15.60;58.60
3348;DHT22;1687;49.540;8.574;2023-03-23T03:02:43;15.60;58.80
3348;DHT22;1687;49.540;8.574;2023-03-23T03:08:13;15.50;58.70
3348;DHT22;1687;49.540;8.574;2023-03-23T03:11:05;15.50;58.80
3348;DHT22;1687;49.540;8.574;2023-03-23T03:13:46;15.50;58.80
3348;DHT22;1687;49.540;8.574;2023-03-23T03:16:27;15.50;59.00
3348;DHT22;1687;49.540;8.574;2023-03-23T03:21:39;15.40;58.90
3348;DHT22;1687;49.540;8.574;2023-03-23T03:24:08;15.50;59.10
3348;DHT22;1687;49.540;8.574;2023-03-23T03:26:38;15.40;58.90
3348;DHT22;1687;49.540;8.574;2023-03-23T03:29:07;15.40;58.90
3348;DHT22;1687;49.540;8.574;2023-03-23T03:31:36;15.30;58.90
3348;DHT22;1687;49.540;8.574;2023-03-23T03:34:04;15.30;59.00
3348;DHT22;1687;49.540;8.574;2023-03-23T03:36:32;15.30;59.00
3348;DHT22;1687;49.540;8.574;2023-03-23T03:39:07;15.30;59.10
3348;DHT22;1687;49.540;8.574;2023-03-23T03:41:35;15.30;59.10
3348;DHT22;1687;49.540;8.574;2023-03-23T03:44:03;15.30;59.30
3348;DHT22;1687;49.540;8.574;2023-03-23T03:46:29;15.30;59.10
3348;DHT22;1687;49.540;8.574;2023-03-23T03:48:59;15.30;59.10
3348;DHT22;1687;49.540;8.574;2023-03-23T03:51:28;15.30;59.10
3348;DHT22;1687;49.540;8.574;2023-03-23T03:53:55;15.20;59.10
3348;DHT22;1687;49.540;8.574;2023-03-23T03:56:21;15.20;59.40
3348;DHT22;1687;49.540;8.574;2023-03-23T03:58:48;15.30;59.50
3348;DHT22;1687;49.540;8.574;2023-03-23T04:01:16;15.30;59.40
3348;DHT22;1687;49.540;8.574;2023-03-23T04:03:43;15.30;59.50
3348;DHT22;1687;49.540;8.574;2023-03-23T04:06:10;15.30;59.50
3348;DHT22;1687;49.540;8.574;2023-03-23T04:08:39;15.30;59.60
3348;DHT22;1687;49.540;8.574;2023-03-23T04:11:10;15.30;59.50
3348;DHT22;1687;49.540;8.574;2023-03-23T04:13:37;15.30;59.50
3348;DHT22;1687;49.540;8.574;2023-03-23T04:16:03;15.30;59.50
3348;DHT22;1687;49.540;8.574;2023-03-23T04:18:30;15.30;59.60
3348;DHT22;1687;49.540;8.574;2023-03-23T04:20:58;15.40;60.10
3348;DHT22;1687;49.540;8.574;2023-03-23T04:23:25;15.40;59.80
3348;DHT22;1687;49.540;8.574;2023-03-23T04:25:53;15.40;59.70
3348;DHT22;1687;49.540;8.574;2023-03-23T04:28:23;15.30;59.70
3348;DHT22;1687;49.540;8.574;2023-03-23T04:30:51;15.40;60.00
3348;DHT22;1687;49.540;8.574;2023-03-23T04:33:21;15.40;60.00
3348;DHT22;1687;49.540;8.574;2023-03-23T04:35:53;15.40;60.10
3348;DHT22;1687;49.540;8.574;2023-03-23T04:38:23;15.50;60.20
3348;DHT22;1687;49.540;8.574;2023-03-23T04:40:51;15.60;60.20
3348;DHT22;1687;49.540;8.574;2023-03-23T04:43:18;15.60;60.20
3348;DHT22;1687;49.540;8.574;2023-03-23T04:45:51;15.60;60.30
3348;DHT22;1687;49.540;8.574;2023-03-23T04:48:24;15.60;60.30
3348;DHT22;1687;49.540;8.574;2023-03-23T04:50:52;15.70;60.50
3348;DHT22;1687;49.540;8.574;2023-03-23T04:53:19;15.70;60.40
3348;DHT22;1687;49.540;8.574;2023-03-23T04:55:46;15.70;60.50
3348;DHT22;1687;49.540;8.574;2023-03-23T04:58:13;15.70;60.50
3348;DHT22;1687;49.540;8.574;2023-03-23T05:00:40;15.70;61.40
3348;DHT22;1687;49.540;8.574;2023-03-23T05:03:11;15.80;60.70
3348;DHT22;1687;49.540;8.574;2023-03-23T05:05:37;15.80;60.70
3348;DHT22;1687;49.540;8.574;2023-03-23T05:08:05;15.70;60.70
3348;DHT22;1687;49.540;8.574;2023-03-23T05:10:31;15.70;60.80
3348;DHT22;1687;49.540;8.574;2023-03-23T05:12:56;15.70;60.80
3348;DHT22;1687;49.540;8.574;2023-03-23T05:15:22;15.70;61.10
3348;DHT22;1687;49.540;8.574;2023-03-23T05:17:50;15.70;61.20
3348;DHT22;1687;49.540;8.574;2023-03-23T05:20:17;15.70;61.10
3348;DHT22;1687;49.540;8.574;2023-03-23T05:22:46;15.70;61.10
3348;DHT22;1687;49.540;8.574;2023-03-23T05:25:16;15.60;61.30
3348;DHT22;1687;49.540;8.574;2023-03-23T05:27:46;15.60;61.30
3348;DHT22;1687;49.540;8.574;2023-03-23T05:30:15;15.60;61.50
3348;DHT22;1687;49.540;8.574;2023-03-23T05:32:45;15.60;62.40
3348;DHT22;1687;49.540;8.574;2023-03-23T05:35:16;15.60;61.70
3348;DHT22;1687;49.540;8.574;2023-03-23T05:37:44;15.70;61.90
3348;DHT22;1687;49.540;8.574;2023-03-23T05:40:10;15.60;61.80
3348;DHT22;1687;49.540;8.574;2023-03-23T05:42:38;15.60;62.00
3348;DHT22;1687;49.540;8.574;2023-03-23T05:45:07;15.70;62.10
3348;DHT22;1687;49.540;8.574;2023-03-23T05:47:36;15.70;62.10
3348;DHT22;1687;49.540;8.574;2023-03-23T05:50:03;15.60;61.90
3348;DHT22;1687;49.540;8.574;2023-03-23T05:52:30;15.60;62.20
3348;DHT22;1687;49.540;8.574;2023-03-23T05:54:58;15.70;62.40
3348;DHT22;1687;49.540;8.574;2023-03-23T05:57:24;15.70;62.40
3348;DHT22;1687;49.540;8.574;2023-03-23T05:59:50;15.70;62.50
3348;DHT22;1687;49.540;8.574;2023-03-23T06:02:16;15.70;62.40
3348;DHT22;1687;49.540;8.574;2023-03-23T06:04:42;15.70;62.50
3348;DHT22;1687;49.540;8.574;2023-03-23T06:07:08;15.80;62.60
3348;DHT22;1687;49.540;8.574;2023-03-23T06:09:39;15.70;62.50
3348;DHT22;1687;49.540;8.574;2023-03-23T06:12:05;15.80;62.60
3348;DHT22;1687;49.540;8.574;2023-03-23T06:14:32;15.80;62.60
3348;DHT22;1687;49.540;8.574;2023-03-23T06:16:58;15.90;62.70
3348;DHT22;1687;49.540;8.574;2023-03-23T06:19:24;15.90;62.60
3348;DHT22;1687;49.540;8.574;2023-03-23T06:21:52;15.90;62.70
3348;DHT22;1687;49.540;8.574;2023-03-23T06:24:19;15.90;62.60
3348;DHT22;1687;49.540;8.574;2023-03-23T06:26:46;15.90;62.70
3348;DHT22;1687;49.540;8.574;2023-03-23T06:29:13;16.00;62.70
3348;DHT22;1687;49.540;8.574;2023-03-23T06:31:41;15.90;62.50
3348;DHT22;1687;49.540;8.574;2023-03-23T06:34:09;15.90;62.60
3348;DHT22;1687;49.540;8.574;2023-03-23T06:36:36;15.90;62.50
3348;DHT22;1687;49.540;8.574;2023-03-23T06:39:02;16.00;62.70
3348;DHT22;1687;49.540;8.574;2023-03-23T06:41:32;16.00;62.70
3348;DHT22;1687;49.540;8.574;2023-03-23T06:43:59;16.00;62.50
3348;DHT22;1687;49.540;8.574;2023-03-23T06:46:26;16.00;62.70
3348;DHT22;1687;49.540;8.574;2023-03-23T06:48:52;16.00;62.70
3348;DHT22;1687;49.540;8.574;2023-03-23T06:51:18;16.00;62.70
3348;DHT22;1687;49.540;8.574;2023-03-23T06:53:44;16.00;62.40
3348;DHT22;1687;49.540;8.574;2023-03-23T06:56:10;16.00;62.60
3348;DHT22;1687;49.540;8.574;2023-03-23T06:58:38;16.00;62.70
3348;DHT22;1687;49.540;8.574;2023-03-23T07:01:04;16.00;62.70
3348;DHT22;1687;49.540;8.574;2023-03-23T07:03:30;16.10;62.60
3348;DHT22;1687;49.540;8.574;2023-03-23T07:05:57;16.10;62.60
3348;DHT22;1687;49.540;8.574;2023-03-23T07:08:23;16.00;62.50
3348;DHT22;1687;49.540;8.574;2023-03-23T07:10:54;16.00;62.50
3348;DHT22;1687;49.540;8.574;2023-03-23T07:13:20;15.90;62.40
3348;DHT22;1687;49.540;8.574;2023-03-23T07:15:47;15.90;62.50
3348;DHT22;1687;49.540;8.574;2023-03-23T07:18:14;15.80;62.40
3348;DHT22;1687;49.540;8.574;2023-03-23T07:20:40;15.80;62.50
3348;DHT22;1687;49.540;8.574;2023-03-23T07:23:06;15.70;62.60
3348;DHT22;1687;49.540;8.574;2023-03-23T07:25:32;15.70;62.60
3348;DHT22;1687;49.540;8.574;2023-03-23T07:28:02;15.70;62.90
3348;DHT22;1687;49.540;8.574;2023-03-23T07:30:29;15.80;62.70
3348;DHT22;1687;49.540;8.574;2023-03-23T07:32:58;15.80;62.50
3348;DHT22;1687;49.540;8.574;2023-03-23T07:35:24;15.70;62.60
3348;DHT22;1687;49.540;8.574;2023-03-23T07:37:51;15.60;62.60
3348;DHT22;1687;49.540;8.574;2023-03-23T07:40:18;15.70;62.90
3348;DHT22;1687;49.540;8.574;2023-03-23T07:42:45;15.60;62.90
3348;DHT22;1687;49.540;8.574;2023-03-23T07:45:15;15.60;63.00
3348;DHT22;1687;49.540;8.574;2023-03-23T07:47:41;15.60;63.20
3348;DHT22;1687;49.540;8.574;2023-03-23T07:50:08;15.50;62.80
3348;DHT22;1687;49.540;8.574;2023-03-23T07:52:35;15.50;63.20
3348;DHT22;1687;49.540;8.574;2023-03-23T07:55:01;15.40;63.30
3348;DHT22;1687;49.540;8.574;2023-03-23T07:57:29;15.40;63.40
3348;DHT22;1687;49.540;8.574;2023-03-23T07:59:56;15.40;63.50
3348;DHT22;1687;49.540;8.574;2023-03-23T08:02:24;15.40;63.70
3348;DHT22;1687;49.540;8.574;2023-03-23T08:04:50;15.40;64.00
3348;DHT22;1687;49.540;8.574;2023-03-23T08:07:16;15.50;64.00
3348;DHT22;1687;49.540;8.574;2023-03-23T08:09:44;15.50;63.80
3348;DHT22;1687;49.540;8.574;2023-03-23T08:12:12;15.50;63.80
3348;DHT22;1687;49.540;8.574;2023-03-23T08:14:38;15.40;63.90
3348;DHT22;1687;49.540;8.574;2023-03-23T08:17:04;15.30;64.00
3348;DHT22;1687;49.540;8.574;2023-03-23T08:19:29;15.30;64.40
3348;DHT22;1687;49.540;8.574;2023-03-23T08:21:55;15.30;64.60
3348;DHT22;1687;49.540;8.574;2023-03-23T08:24:21;15.30;64.50
3348;DHT22;1687;49.540;8.574;2023-03-23T08:26:47;15.20;64.70
3348;DHT22;1687;49.540;8.574;2023-03-23T08:29:12;15.30;64.90
3348;DHT22;1687;49.540;8.574;2023-03-23T08:31:39;15.30;65.00
3348;DHT22;1687;49.540;8.574;2023-03-23T08:34:05;15.30;65.00
3348;DHT22;1687;49.540;8.574;2023-03-23T08:36:34;15.30;65.10
3348;DHT22;1687;49.540;8.574;2023-03-23T08:39:00;15.30;65.30
3348;DHT22;1687;49.540;8.574;2023-03-23T08:41:26;15.30;65.40
3348;DHT22;1687;49.540;8.574;2023-03-23T08:43:52;15.30;65.30
3348;DHT22;1687;49.540;8.574;2023-03-23T08:46:18;15.30;65.40
3348;DHT22;1687;49.540;8.574;2023-03-23T08:48:45;15.30;65.60
3348;DHT22;1687;49.540;8.574;2023-03-23T08:51:12;15.40;65.80
3348;DHT22;1687;49.540;8.574;2023-03-23T08:53:38;15.40;65.60
3348;DHT22;1687;49.540;8.574;2023-03-23T08:56:09;15.40;65.60
3348;DHT22;1687;49.540;8.574;2023-03-23T08:58:36;15.40;65.80
3348;DHT22;1687;49.540;8.574;2023-03-23T09:01:04;15.30;65.80
3348;DHT22;1687;49.540;8.574;2023-03-23T09:03:32;15.30;65.70
3348;DHT22;1687;49.540;8.574;2023-03-23T09:06:00;15.20;66.00
3348;DHT22;1687;49.540;8.574;2023-03-23T09:08:28;15.20;66.00
3348;DHT22;1687;49.540;8.574;2023-03-23T09:11:05;15.20;66.30
3348;DHT22;1687;49.540;8.574;2023-03-23T09:13:33;15.20;66.60
3348;DHT22;1687;49.540;8.574;2023-03-23T09:15:59;15.30;67.10
3348;DHT22;1687;49.540;8.574;2023-03-23T09:18:25;15.30;66.90
3348;DHT22;1687;49.540;8.574;2023-03-23T09:20:52;15.30;66.80
3348;DHT22;1687;49.540;8.574;2023-03-23T09:23:19;15.30;67.10
3348;DHT22;1687;49.540;8.574;2023-03-23T09:25:46;15.30;67.10
3348;DHT22;1687;49.540;8.574;2023-03-23T09:28:12;15.30;67.20
3348;DHT22;1687;49.540;8.574;2023-03-23T09:30:39;15.30;67.50
3348;DHT22;1687;49.540;8.574;2023-03-23T09:33:06;15.40;67.40
3348;DHT22;1687;49.540;8.574;2023-03-23T09:35:34;15.40;67.40
3348;DHT22;1687;49.540;8.574;2023-03-23T09:38:02;15.40;67.40
3348;DHT22;1687;49.540;8.574;2023-03-23T09:40:35;15.40;67.50
3348;DHT22;1687;49.540;8.574;2023-03-23T09:49:43;15.60;67.20
3348;DHT22;1687;49.540;8.574;2023-03-23T09:52:16;15.60;67.00
3348;DHT22;1687;49.540;8.574;2023-03-23T09:54:48;15.60;67.00
3348;DHT22;1687;49.540;8.574;2023-03-23T10:05:37;15.50;66.90
3348;DHT22;1687;49.540;8.574;2023-03-23T10:08:19;15.50;66.80
3348;DHT22;1687;49.540;8.574;2023-03-23T10:14:07;15.60;67.20
3348;DHT22;1687;49.540;8.574;2023-03-23T10:22:22;15.90;67.50
3348;DHT22;1687;49.540;8.574;2023-03-23T10:28:13;16.00;67.80
3348;DHT22;1687;49.540;8.574;2023-03-23T10:30:48;16.20;67.80
3348;DHT22;1687;49.540;8.574;2023-03-23T10:33:29;16.40;67.80
3348;DHT22;1687;49.540;8.574;2023-03-23T10:41:39;16.40;67.80
3348;DHT22;1687;49.540;8.574;2023-03-23T10:44:11;16.50;67.70
3348;DHT22;1687;49.540;8.574;2023-03-23T10:46:43;16.50;67.40
3348;DHT22;1687;49.540;8.574;2023-03-23T10:49:20;16.50;67.60
3348;DHT22;1687;49.540;8.574;2023-03-23T10:54:39;16.80;67.50
3348;DHT22;1687;49.540;8.574;2023-03-23T10:57:31;16.90;67.80
3348;DHT22;1687;49.540;8.574;2023-03-23T11:02:42;17.00;67.70
3348;DHT22;1687;49.540;8.574;2023-03-23T11:05:21;17.00;67.50
3348;DHT22;1687;49.540;8.574;2023-03-23T11:07:56;16.90;67.30
3348;DHT22;1687;49.540;8.574;2023-03-23T11:10:33;16.80;67.00
3348;DHT22;1687;49.540;8.574;2023-03-23T11:13:01;16.70;67.00
3348;DHT22;1687;49.540;8.574;2023-03-23T11:15:35;16.60;66.90
3348;DHT22;1687;49.540;8.574;2023-03-23T11:18:25;16.50;67.00
3348;DHT22;1687;49.540;8.574;2023-03-23T11:20:58;16.50;67.30
3348;DHT22;1687;49.540;8.574;2023-03-23T11:23:24;16.50;67.10
3348;DHT22;1687;49.540;8.574;2023-03-23T11:26:09;16.40;66.90
3348;DHT22;1687;49.540;8.574;2023-03-23T11:28:46;16.30;67.00
3348;DHT22;1687;49.540;8.574;2023-03-23T11:31:18;16.30;67.40
3348;DHT22;1687;49.540;8.574;2023-03-23T11:33:57;16.20;67.20
3348;DHT22;1687;49.540;8.574;2023-03-23T11:36:37;16.10;67.40
3348;DHT22;1687;49.540;8.574;2023-03-23T11:42:23;16.20;68.00
3348;DHT22;1687;49.540;8.574;2023-03-23T11:45:30;16.30;68.00
3348;DHT22;1687;49.540;8.574;2023-03-23T11:56:47;16.50;68.10
3348;DHT22;1687;49.540;8.574;2023-03-23T11:59:28;16.40;68.00
3348;DHT22;1687;49.540;8.574;2023-03-23T12:02:31;16.40;68.30
3348;DHT22;1687;49.540;8.574;2023-03-23T12:05:30;16.40;68.10
3348;DHT22;1687;49.540;8.574;2023-03-23T12:08:30;16.30;68.30
3348;DHT22;1687;49.540;8.574;2023-03-23T12:15:08;16.30;68.40
3348;DHT22;1687;49.540;8.574;2023-03-23T12:23:23;16.20;68.30
3348;DHT22;1687;49.540;8.574;2023-03-23T12:37:31;16.20;68.40
3348;DHT22;1687;49.540;8.574;2023-03-23T12:40:43;16.30;68.70
3348;DHT22;1687;49.540;8.574;2023-03-23T12:46:20;16.40;68.40
3348;DHT22;1687;49.540;8.574;2023-03-23T12:49:02;16.40;68.40
3348;DHT22;1687;49.540;8.574;2023-03-23T12:54:37;16.40;68.70
3348;DHT22;1687;49.540;8.574;2023-03-23T13:03:05;16.90;68.90
3348;DHT22;1687;49.540;8.574;2023-03-23T13:05:47;17.00;68.80
3348;DHT22;1687;49.540;8.574;2023-03-23T13:08:28;17.00;68.60
3348;DHT22;1687;49.540;8.574;2023-03-23T13:11:03;16.90;68.20
3348;DHT22;1687;49.540;8.574;2023-03-23T13:13:51;16.90;68.70
3348;DHT22;1687;49.540;8.574;2023-03-23T13:16:35;16.90;68.40
3348;DHT22;1687;49.540;8.574;2023-03-23T13:19:31;16.80;68.30
3348;DHT22;1687;49.540;8.574;2023-03-23T13:22:11;16.80;68.30
3348;DHT22;1687;49.540;8.574;2023-03-23T13:24:51;16.80;68.40
3348;DHT22;1687;49.540;8.574;2023-03-23T13:27:26;16.70;68.30
3348;DHT22;1687;49.540;8.574;2023-03-23T13:29:58;16.60;68.30
3348;DHT22;1687;49.540;8.574;2023-03-23T13:32:37;16.60;68.30
3348;DHT22;1687;49.540;8.574;2023-03-23T13:35:11;16.50;68.50
3348;DHT22;1687;49.540;8.574;2023-03-23T13:37:44;16.50;68.50
3348;DHT22;1687;49.540;8.574;2023-03-23T13:40:26;16.50;68.60
3348;DHT22;1687;49.540;8.574;2023-03-23T13:42:58;16.50;68.60
3348;DHT22;1687;49.540;8.574;2023-03-23T13:48:05;16.40;68.70
3348;DHT22;1687;49.540;8.574;2023-03-23T13:50:52;16.40;68.80
3348;DHT22;1687;49.540;8.574;2023-03-23T13:53:31;16.40;69.00
3348;DHT22;1687;49.540;8.574;2023-03-23T13:56:36;16.40;68.80
3348;DHT22;1687;49.540;8.574;2023-03-23T13:59:27;16.50;69.20
3348;DHT22;1687;49.540;8.574;2023-03-23T14:18:57;16.50;68.70
3348;DHT22;1687;49.540;8.574;2023-03-23T14:21:54;16.60;68.60
3348;DHT22;1687;49.540;8.574;2023-03-23T14:24:38;16.70;68.50
3348;DHT22;1687;49.540;8.574;2023-03-23T14:29:31;16.90;68.50
3348;DHT22;1687;49.540;8.574;2023-03-23T14:31:58;17.00;68.40
3348;DHT22;1687;49.540;8.574;2023-03-23T14:34:26;16.90;68.10
3348;DHT22;1687;49.540;8.574;2023-03-23T14:36:54;16.90;68.20
3348;DHT22;1687;49.540;8.574;2023-03-23T14:39:31;16.90;67.80
3348;DHT22;1687;49.540;8.574;2023-03-23T14:42:06;16.80;67.90
3348;DHT22;1687;49.540;8.574;2023-03-23T14:44:48;16.80;68.00
3348;DHT22;1687;49.540;8.574;2023-03-23T14:47:20;16.80;68.10
3348;DHT22;1687;49.540;8.574;2023-03-23T14:50:00;16.80;68.00
3348;DHT22;1687;49.540;8.574;2023-03-23T14:52:32;16.80;68.00
3348;DHT22;1687;49.540;8.574;2023-03-23T14:55:19;16.80;67.90
3348;DHT22;1687;49.540;8.574;2023-03-23T14:57:47;16.80;67.90
3348;DHT22;1687;49.540;8.574;2023-03-23T15:00:21;16.80;67.80
3348;DHT22;1687;49.540;8.574;2023-03-23T15:02:55;16.80;67.90
3348;DHT22;1687;49.540;8.574;2023-03-23T15:11:21;16.70;67.80
3348;DHT22;1687;49.540;8.574;2023-03-23T15:13:53;16.60;67.90
3348;DHT22;1687;49.540;8.574;2023-03-23T15:16:25;16.60;67.80
3348;DHT22;1687;49.540;8.574;2023-03-23T15:18:58;16.50;67.80
3348;DHT22;1687;49.540;8.574;2023-03-23T15:21:29;16.40;67.90
3348;DHT22;1687;49.540;8.574;2023-03-23T15:24:00;16.40;68.20
3348;DHT22;1687;49.540;8.574;2023-03-23T15:26:41;16.50;68.20
3348;DHT22;1687;49.540;8.574;2023-03-23T15:31:45;16.50;68.30
3348;DHT22;1687;49.540;8.574;2023-03-23T15:34:25;16.50;68.30
3348;DHT22;1687;49.540;8.574;2023-03-23T15:37:02;16.60;68.60
3348;DHT22;1687;49.540;8.574;2023-03-23T15:39:29;16.70;68.70
3348;DHT22;1687;49.540;8.574;2023-03-23T15:41:56;16.70;68.50
3348;DHT22;1687;49.540;8.574;2023-03-23T15:44:33;16.60;68.30
3348;DHT22;1687;49.540;8.574;2023-03-23T15:47:18;16.70;68.60
3348;DHT22;1687;49.540;8.574;2023-03-23T15:49:46;16.70;68.50
3348;DHT22;1687;49.540;8.574;2023-03-23T15:52:27;16.70;68.30
3348;DHT22;1687;49.540;8.574;2023-03-23T15:54:53;16.70;68.60
3348;DHT22;1687;49.540;8.574;2023-03-23T15:57:19;16.70;68.70
3348;DHT22;1687;49.540;8.574;2023-03-23T15:59:45;16.70;68.50
3348;DHT22;1687;49.540;8.574;2023-03-23T16:02:20;16.70;68.40
3348;DHT22;1687;49.540;8.574;2023-03-23T16:04:48;16.70;68.80
3348;DHT22;1687;49.540;8.574;2023-03-23T16:07:14;16.70;69.00
3348;DHT22;1687;49.540;8.574;2023-03-23T16:09:41;16.80;68.90
3348;DHT22;1687;49.540;8.574;2023-03-23T16:12:10;16.90;68.90
3348;DHT22;1687;49.540;8.574;2023-03-23T16:14:38;16.90;68.70
3348;DHT22;1687;49.540;8.574;2023-03-23T16:17:05;16.70;68.50
3348;DHT22;1687;49.540;8.574;2023-03-23T16:19:32;16.60;68.50
3348;DHT22;1687;49.540;8.574;2023-03-23T16:21:58;16.60;68.70
3348;DHT22;1687;49.540;8.574;2023-03-23T16:24:24;16.50;68.80
3348;DHT22;1687;49.540;8.574;2023-03-23T16:26:49;16.50;69.10
3348;DHT22;1687;49.540;8.574;2023-03-23T16:29:16;16.50;69.10
3348;DHT22;1687;49.540;8.574;2023-03-23T16:31:42;16.50;69.10
3348;DHT22;1687;49.540;8.574;2023-03-23T16:34:08;16.50;69.20
3348;DHT22;1687;49.540;8.574;2023-03-23T16:36:34;16.50;69.40
3348;DHT22;1687;49.540;8.574;2023-03-23T16:39:00;16.50;69.30
3348;DHT22;1687;49.540;8.574;2023-03-23T16:41:26;16.50;69.60
3348;DHT22;1687;49.540;8.574;2023-03-23T16:43:51;16.50;69.60
3348;DHT22;1687;49.540;8.574;2023-03-23T16:46:17;16.50;69.60
3348;DHT22;1687;49.540;8.574;2023-03-23T16:48:43;16.50;69.70
3348;DHT22;1687;49.540;8.574;2023-03-23T16:51:08;16.50;69.70
3348;DHT22;1687;49.540;8.574;2023-03-23T16:53:34;16.50;69.80
3348;DHT22;1687;49.540;8.574;2023-03-23T16:56:01;16.50;69.80
3348;DHT22;1687;49.540;8.574;2023-03-23T16:58:27;16.50;69.90
3348;DHT22;1687;49.540;8.574;2023-03-23T17:00:52;16.50;69.80
3348;DHT22;1687;49.540;8.574;2023-03-23T17:03:19;16.50;70.10
3348;DHT22;1687;49.540;8.574;2023-03-23T17:05:50;16.50;69.90
3348;DHT22;1687;49.540;8.574;2023-03-23T17:08:17;16.60;70.30
3348;DHT22;1687;49.540;8.574;2023-03-23T17:10:44;16.60;70.00
3348;DHT22;1687;49.540;8.574;2023-03-23T17:13:10;16.60;70.10
3348;DHT22;1687;49.540;8.574;2023-03-23T17:15:38;16.60;70.20
3348;DHT22;1687;49.540;8.574;2023-03-23T17:18:05;16.60;70.10
3348;DHT22;1687;49.540;8.574;2023-03-23T17:20:31;16.50;70.00
3348;DHT22;1687;49.540;8.574;2023-03-23T17:22:57;16.50;70.20
3348;DHT22;1687;49.540;8.574;2023-03-23T17:25:25;16.50;70.30
3348;DHT22;1687;49.540;8.574;2023-03-23T17:27:51;16.50;70.50
3348;DHT22;1687;49.540;8.574;2023-03-23T17:30:17;16.50;70.50
3348;DHT22;1687;49.540;8.574;2023-03-23T17:32:43;16.60;70.60
3348;DHT22;1687;49.540;8.574;2023-03-23T17:35:12;16.50;70.20
3348;DHT22;1687;49.540;8.574;2023-03-23T17:37:37;16.50;70.60
3348;DHT22;1687;49.540;8.574;2023-03-23T17:40:04;16.50;70.50
3348;DHT22;1687;49.540;8.574;2023-03-23T17:42:34;16.50;70.80
3348;DHT22;1687;49.540;8.574;2023-03-23T17:45:02;16.50;70.60
3348;DHT22;1687;49.540;8.574;2023-03-23T17:47:29;16.40;70.50
3348;DHT22;1687;49.540;8.574;2023-03-23T17:49:54;16.40;70.80
3348;DHT22;1687;49.540;8.574;2023-03-23T17:52:21;16.40;70.90
3348;DHT22;1687;49.540;8.574;2023-03-23T17:54:47;16.50;70.90
3348;DHT22;1687;49.540;8.574;2023-03-23T17:57:13;16.50;70.90
3348;DHT22;1687;49.540;8.574;2023-03-23T17:59:39;16.50;70.80
3348;DHT22;1687;49.540;8.574;2023-03-23T18:02:05;16.50;71.00
3348;DHT22;1687;49.540;8.574;2023-03-23T18:04:30;16.50;71.10
3348;DHT22;1687;49.540;8.574;2023-03-23T18:06:57;16.50;71.10
3348;DHT22;1687;49.540;8.574;2023-03-23T18:09:23;16.60;71.20
3348;DHT22;1687;49.540;8.574;2023-03-23T18:11:49;16.60;71.00
3348;DHT22;1687;49.540;8.574;2023-03-23T18:14:16;16.50;70.80
3348;DHT22;1687;49.540;8.574;2023-03-23T18:16:43;16.50;71.00
3348;DHT22;1687;49.540;8.574;2023-03-23T18:19:09;16.50;71.00
3348;DHT22;1687;49.540;8.574;2023-03-23T18:21:35;16.50;71.00
3348;DHT22;1687;49.540;8.574;2023-03-23T18:24:01;16.50;70.70
3348;DHT22;1687;49.540;8.574;2023-03-23T18:26:27;16.40;70.60
3348;DHT22;1687;49.540;8.574;2023-03-23T18:28:53;16.40;71.00
3348;DHT22;1687;49.540;8.574;2023-03-23T18:31:19;16.40;71.40
3348;DHT22;1687;49.540;8.574;2023-03-23T18:33:46;16.50;71.10
3348;DHT22;1687;49.540;8.574;2023-03-23T18:36:18;16.50;71.10